Time;durP1;ratioP1;P1;durP2;ratioP2;P2;SDS_P1;SDS_P2;PMS_P1;PMS_P2;Temp;Humidity;BMP_temperature;BMP_pressure;BME280_temperature;BME280_humidity;BME280_pressure;Samples;Min_cycle;Max_cycle;Signal;HPM_P1;HPM_P2
2023/08/15 00:00:37;;;;;;;11.15;3.08;;;18.90;99.90;;;18.45;100.00;101048.22;4196943;28;20456;-76
2023/08/15 00:02:38;;;;;;;14.38;4.20;;;18.90;99.90;;;18.28;100.00;101016.72;4172784;28;20018;-76
2023/08/15 00:04:39;;;;;;;9.00;3.38;;;18.90;99.90;;;18.44;100.00;101057.25;4191126;28;20499;-76
2023/08/15 00:06:40;;;;;;;14.30;4.22;;;18.90;99.90;;;18.39;100.00;101054.34;4204681;28;20016;-76
2023/08/15 00:08:41;;;;;;;11.75;3.25;;;18.90;99.90;;;18.43;100.00;101047.56;4202777;28;20032;-76
2023/08/15 00:10:42;;;;;;;10.13;3.25;;;18.90;99.90;;;18.42;100.00;101048.59;4193950;28;20028;-77
2023/08/15 00:12:43;;;;;;;10.70;3.70;;;18.90;99.90;;;18.39;100.00;101054.34;4190942;28;20484;-76
2023/08/15 00:14:43;;;;;;;12.75;3.22;;;18.90;99.90;;;18.41;100.00;101052.28;4203020;28;20020;-76
2023/08/15 00:16:44;;;;;;;12.20;4.10;;;18.90;99.90;;;18.39;100.00;101043.66;4204073;28;20017;-76
2023/08/15 00:18:45;;;;;;;9.98;3.40;;;18.90;99.90;;;18.38;100.00;101042.00;4202783;28;20043;-76
2023/08/15 00:20:48;;;;;;;10.93;3.30;;;18.90;99.90;;;18.39;100.00;101049.00;4202624;28;20032;-76
2023/08/15 00:22:48;;;;;;;14.38;4.28;;;18.90;99.90;;;18.28;100.00;101025.50;4203818;28;20050;-76
2023/08/15 00:24:49;;;;;;;11.55;3.28;;;18.90;99.90;;;18.37;100.00;101050.22;4202598;28;20020;-76
2023/08/15 00:26:50;;;;;;;11.63;4.32;;;18.90;99.90;;;18.27;100.00;101042.59;4202724;28;20042;-76
2023/08/15 00:28:51;;;;;;;17.02;4.10;;;18.80;99.90;;;18.28;100.00;101049.56;4202508;28;20070;-76
2023/08/15 00:30:52;;;;;;;12.50;3.63;;;18.80;99.90;;;18.31;100.00;101054.50;4203828;28;20024;-76
2023/08/15 00:32:53;;;;;;;12.30;4.28;;;18.80;99.90;;;18.29;100.00;101047.72;4203823;28;20522;-76
2023/08/15 00:34:53;;;;;;;9.68;3.70;;;18.80;99.90;;;18.20;100.00;101039.03;4203678;28;20024;-76
2023/08/15 00:36:54;;;;;;;12.40;3.40;;;18.80;99.90;;;18.27;100.00;101050.59;4203589;28;20049;-76
2023/08/15 00:38:55;;;;;;;12.52;4.20;;;18.80;99.90;;;18.30;100.00;101044.84;4202337;28;20032;-76
2023/08/15 00:40:56;;;;;;;11.40;3.60;;;18.80;99.90;;;18.28;100.00;101046.88;4203557;28;20021;-76
2023/08/15 00:42:57;;;;;;;10.38;3.33;;;18.80;99.90;;;18.27;100.00;101044.44;4203538;28;20388;-76
2023/08/15 00:44:58;;;;;;;17.65;5.38;;;18.80;99.90;;;18.29;100.00;101045.03;4184306;28;20076;-76
2023/08/15 00:46:59;;;;;;;17.42;4.13;;;18.80;99.90;;;18.28;100.00;101046.88;4192219;28;20037;-76
2023/08/15 00:49:00;;;;;;;8.45;3.05;;;18.80;99.90;;;18.27;100.00;101042.59;4202363;28;20055;-76
2023/08/15 00:51:02;;;;;;;16.15;4.40;;;18.80;99.90;;;18.24;100.00;101043.81;4192392;28;20025;-76
2023/08/15 00:53:04;;;;;;;15.20;4.40;;;18.70;99.90;;;18.24;100.00;101043.81;4203202;28;20440;-76
2023/08/15 00:55:06;;;;;;;12.32;4.43;;;18.70;99.90;;;18.23;100.00;101038.66;4203644;28;20112;-76
2023/08/15 00:57:07;;;;;;;19.70;4.00;;;18.70;99.90;;;18.23;100.00;101038.66;4202256;28;20032;-76
2023/08/15 00:59:08;;;;;;;16.92;4.10;;;18.70;99.90;;;18.26;100.00;101046.28;4202130;28;20029;-76
2023/08/15 01:01:15;;;;;;;10.63;3.50;;;18.70;99.90;;;18.28;100.00;101046.09;4202256;28;20029;-76
2023/08/15 01:03:17;;;;;;;12.05;4.13;;;18.70;99.90;;;18.27;100.00;101045.25;4202187;28;20099;-76
2023/08/15 01:05:20;;;;;;;15.35;4.63;;;18.80;99.90;;;18.30;100.00;101042.19;4202089;28;20046;-76
2023/08/15 01:07:21;;;;;;;15.43;4.20;;;18.80;99.90;;;18.33;100.00;101051.66;4203001;28;20055;-76
2023/08/15 01:09:21;;;;;;;8.80;3.42;;;18.80;99.90;;;18.32;100.00;101050.81;4185340;28;20095;-76
2023/08/15 01:11:25;;;;;;;9.85;4.05;;;18.80;99.90;;;18.31;100.00;101046.47;4196612;28;20029;-76
2023/08/15 01:13:53;;;;;;;14.13;3.85;;;18.80;99.90;;;18.33;100.00;101049.81;4201872;28;20079;-76
2023/08/15 01:15:54;;;;;;;8.15;4.30;;;18.80;99.90;;;18.27;100.00;101039.09;4203225;28;20104;-76
2023/08/15 01:18:20;;;;;;;14.35;4.00;;;18.80;99.90;;;18.29;100.00;101048.53;4201971;28;20031;-76
2023/08/15 01:20:30;;;;;;;12.38;4.05;;;18.80;99.90;;;18.32;100.00;101044.66;4201780;28;20102;-76
2023/08/15 01:22:34;;;;;;;11.60;4.00;;;18.80;99.90;;;18.31;100.00;101045.69;4201769;28;20441;-76
2023/08/15 01:24:36;;;;;;;12.85;3.47;;;18.80;99.90;;;18.27;100.00;101034.56;4185603;28;20426;-76
2023/08/15 01:26:37;;;;;;;8.73;4.20;;;18.80;99.90;;;18.30;100.00;101044.03;4201882;28;20471;-76
2023/08/15 01:28:40;;;;;;;10.90;2.97;;;18.80;99.90;;;18.32;100.00;101047.31;4201489;28;20024;-76
2023/08/15 01:31:16;;;;;;;10.43;3.75;;;18.80;99.90;;;18.34;100.00;101048.75;4185345;28;20027;-76
2023/08/15 01:33:39;;;;;;;9.60;3.53;;;18.80;99.90;;;18.34;100.00;101055.97;4201454;28;20119;-76
2023/08/15 01:35:47;;;;;;;13.60;3.90;;;18.80;99.90;;;18.31;100.00;101051.81;4201433;28;20036;-76
2023/08/15 01:38:16;;;;;;;9.70;3.40;;;18.80;99.90;;;18.33;100.00;101055.16;4184995;28;20474;-76
2023/08/15 01:40:21;;;;;;;12.15;3.67;;;18.80;99.90;;;18.30;100.00;101047.53;4183474;28;20079;-76
2023/08/15 01:42:25;;;;;;;12.90;4.38;;;18.80;99.90;;;18.34;100.00;101061.31;4202665;28;20112;-76
2023/08/15 01:44:27;;;;;;;13.68;3.65;;;18.80;99.90;;;18.33;100.00;101055.16;4201589;28;20115;-76
2023/08/15 01:46:28;;;;;;;9.13;3.92;;;18.80;99.90;;;18.34;100.00;101056.78;4184707;28;20032;-76
2023/08/15 01:48:29;;;;;;;10.32;3.80;;;18.80;99.90;;;18.34;100.00;101056.78;4201375;28;20086;-76
2023/08/15 01:50:30;;;;;;;10.30;3.55;;;18.80;99.90;;;18.33;100.00;101059.66;4197621;28;20455;-76
2023/08/15 01:52:31;;;;;;;14.80;3.30;;;18.80;99.90;;;18.33;100.00;101052.47;4200906;28;20059;-76
2023/08/15 01:54:32;;;;;;;12.75;3.88;;;18.80;99.90;;;18.33;100.00;101048.97;4202385;28;20024;-76
2023/08/15 01:56:33;;;;;;;11.80;4.18;;;18.80;99.90;;;18.33;100.00;101055.16;4202312;28;20027;-76
2023/08/15 01:58:34;;;;;;;10.27;3.40;;;18.80;99.90;;;18.33;100.00;101048.97;4201320;28;20028;-75
2023/08/15 02:00:34;;;;;;;12.70;3.42;;;18.80;99.90;;;18.32;100.00;101047.31;4201215;28;20032;-76
2023/08/15 02:02:35;;;;;;;8.40;3.80;;;18.90;99.90;;;18.34;100.00;101053.31;4202265;28;20050;-76
2023/08/15 02:04:36;;;;;;;13.15;4.57;;;18.90;99.90;;;18.37;100.00;101061.72;4202432;28;20025;-76
2023/08/15 02:06:37;;;;;;;12.75;3.70;;;18.90;99.90;;;18.30;100.00;101054.72;4202318;28;20028;-76
2023/08/15 02:08:38;;;;;;;8.13;3.22;;;18.80;99.90;;;18.35;100.00;101055.75;4201038;28;20029;-76
2023/08/15 02:10:39;;;;;;;7.82;3.05;;;18.80;99.90;;;18.31;100.00;101054.50;4202126;28;20051;-76
2023/08/15 02:12:40;;;;;;;8.32;3.50;;;18.80;99.90;;;18.30;100.00;101066.22;4184469;28;20021;-76
2023/08/15 02:14:40;;;;;;;12.98;4.47;;;18.80;99.90;;;18.27;100.00;101061.28;4200933;28;20027;-76
2023/08/15 02:16:41;;;;;;;9.00;3.30;;;18.80;99.90;;;18.25;100.00;101058.78;4202176;28;20025;-76
2023/08/15 02:18:42;;;;;;;14.40;3.63;;;18.80;99.90;;;18.22;100.00;101064.53;4202014;28;20032;-76
2023/08/15 02:20:44;;;;;;;11.98;3.30;;;18.70;99.90;;;18.24;100.00;101061.69;4200936;28;20032;-76
2023/08/15 02:22:45;;;;;;;8.55;3.00;;;18.70;99.90;;;18.23;100.00;101070.69;4201987;28;20017;-76
2023/08/15 02:24:46;;;;;;;8.90;3.60;;;18.70;99.90;;;18.23;100.00;101060.00;4202007;28;20029;-76
2023/08/15 02:26:47;;;;;;;7.03;2.60;;;18.70;99.90;;;18.22;100.00;101069.03;4184135;28;20059;-76
2023/08/15 02:28:48;;;;;;;11.30;3.42;;;18.70;99.90;;;18.21;100.00;101062.06;4188697;28;20438;-76
2023/08/15 02:30:49;;;;;;;7.63;2.92;;;18.70;99.90;;;18.20;100.00;101063.91;4200697;28;20058;-76
2023/08/15 02:32:49;;;;;;;7.65;3.70;;;18.70;99.90;;;18.20;100.00;101068.41;4200797;28;20434;-76
2023/08/15 02:34:51;;;;;;;6.78;2.95;;;18.70;99.90;;;18.20;100.00;101068.41;4183946;28;20025;-76
2023/08/15 02:36:52;;;;;;;7.57;2.80;;;18.70;99.90;;;18.18;100.00;101067.81;4201887;28;20049;-76
2023/08/15 02:38:53;;;;;;;8.52;3.33;;;18.70;99.90;;;18.21;100.00;101067.41;4201392;28;20027;-76
2023/08/15 02:40:54;;;;;;;11.60;4.22;;;18.70;99.90;;;18.19;100.00;101074.78;4201834;28;20024;-76
2023/08/15 02:42:55;;;;;;;9.07;2.92;;;18.70;99.90;;;18.18;100.00;101068.63;4200483;28;20438;-76
2023/08/15 02:44:56;;;;;;;7.90;2.88;;;18.70;99.90;;;18.19;100.00;101074.78;4198925;28;20024;-76
2023/08/15 02:46:56;;;;;;;5.93;2.50;;;18.70;99.90;;;18.17;100.00;101074.97;4201887;28;20032;-76
2023/08/15 02:48:59;;;;;;;8.65;2.90;;;18.70;99.90;;;18.14;100.00;101079.88;4201836;28;20025;-76
2023/08/15 02:51:00;;;;;;;10.02;3.00;;;18.70;99.90;;;18.14;100.00;101078.03;4193419;28;20103;-76
2023/08/15 02:53:00;;;;;;;5.78;2.88;;;18.60;99.90;;;18.12;100.00;101077.44;4199639;28;20082;-76
2023/08/15 02:55:01;;;;;;;14.98;4.03;;;18.60;99.90;;;18.10;100.00;101087.47;4202045;28;20032;-76
2023/08/15 02:57:02;;;;;;;7.65;2.83;;;18.60;99.90;;;18.08;100.00;101083.34;4201800;28;20423;-76
2023/08/15 02:59:03;;;;;;;10.13;3.38;;;18.60;99.90;;;18.09;100.00;101090.34;4200529;28;20447;-76
2023/08/15 03:01:04;;;;;;;8.32;3.20;;;18.60;99.90;;;18.11;100.00;101093.63;4201513;28;20032;-76
2023/08/15 03:03:05;;;;;;;9.30;3.40;;;18.60;99.90;;;18.13;100.00;101099.59;4201776;28;20020;-76
2023/08/15 03:05:06;;;;;;;7.97;3.33;;;18.60;99.90;;;18.06;100.00;101085.41;4201744;28;20040;-76
2023/08/15 03:07:07;;;;;;;6.88;2.80;;;18.60;99.90;;;18.15;100.00;101098.41;4201503;28;20430;-76
2023/08/15 03:09:08;;;;;;;9.68;3.75;;;18.60;99.90;;;18.12;100.00;101088.09;4203163;28;20033;-76
2023/08/15 03:11:09;;;;;;;7.07;3.20;;;18.70;99.90;;;18.17;100.00;101092.84;4203912;28;20039;-76
2023/08/15 03:13:10;;;;;;;10.88;4.07;;;18.70;99.90;;;18.18;100.00;101097.19;4203902;28;20029;-76
2023/08/15 03:15:11;;;;;;;9.95;3.80;;;18.70;99.90;;;18.12;100.00;101092.63;4205103;28;20055;-76
2023/08/15 03:17:13;;;;;;;6.93;3.40;;;18.70;99.90;;;18.14;100.00;101104.75;4205139;28;20025;-76
2023/08/15 03:19:14;;;;;;;5.82;3.20;;;18.60;99.90;;;18.15;100.00;101105.56;4204973;28;20391;-76
2023/08/15 03:21:16;;;;;;;6.72;2.60;;;18.60;99.90;;;17.99;100.00;101106.69;4203635;28;20035;-76
2023/08/15 03:23:16;;;;;;;4.78;2.30;;;18.60;99.90;;;17.80;100.00;101111.91;4204779;28;20013;-76
2023/08/15 03:25:17;;;;;;;5.72;1.70;;;18.50;99.90;;;17.67;100.00;101117.97;4203947;28;20079;-76
2023/08/15 03:27:18;;;;;;;4.80;1.52;;;18.30;99.90;;;17.47;100.00;101122.28;4205035;28;20025;-76
2023/08/15 03:29:19;;;;;;;2.55;1.00;;;18.20;99.90;;;17.31;100.00;101127.88;4203687;28;20475;-76
2023/08/15 03:31:21;;;;;;;8.10;2.22;;;18.00;99.90;;;17.23;100.00;101136.00;4203468;28;20059;-76
2023/08/15 03:33:23;;;;;;;3.85;0.85;;;17.90;99.90;;;17.15;100.00;101126.25;4204645;28;20036;-76
2023/08/15 03:35:24;;;;;;;3.17;1.45;;;17.80;99.90;;;17.06;100.00;101136.22;4186890;28;20080;-76
2023/08/15 03:37:26;;;;;;;2.10;0.90;;;17.70;99.90;;;16.91;100.00;101139.94;4204536;28;20032;-76
2023/08/15 03:39:27;;;;;;;2.60;0.85;;;17.60;99.90;;;16.77;100.00;101136.28;4204598;28;20020;-76
2023/08/15 03:41:28;;;;;;;3.67;1.13;;;17.50;99.90;;;16.74;100.00;101135.84;4194008;28;20104;-76
2023/08/15 03:43:34;;;;;;;3.22;1.25;;;17.40;99.90;;;16.67;100.00;101125.09;4203913;28;20013;-75
2023/08/15 03:45:34;;;;;;;7.80;1.77;;;17.30;99.90;;;16.67;100.00;101141.06;4202925;28;20067;-76
2023/08/15 03:47:35;;;;;;;4.25;1.00;;;17.30;99.90;;;16.62;100.00;101137.31;4204575;28;20418;-75
2023/08/15 03:49:37;;;;;;;2.95;0.88;;;17.30;99.90;;;16.63;100.00;101134.50;4204427;28;20020;-75
2023/08/15 03:51:38;;;;;;;2.00;1.10;;;17.20;99.90;;;16.63;100.00;101145.13;4203388;28;20024;-76
2023/08/15 03:53:39;;;;;;;2.88;1.00;;;17.20;99.90;;;16.57;100.00;101141.38;4203246;28;20024;-76
2023/08/15 03:55:40;;;;;;;4.30;1.20;;;17.20;99.90;;;16.50;100.00;101148.41;4203265;28;20024;-76
2023/08/15 03:57:41;;;;;;;3.15;1.20;;;17.20;99.90;;;16.42;100.00;101139.69;4204355;28;20031;-76
2023/08/15 03:59:42;;;;;;;2.67;0.95;;;17.10;99.90;;;16.45;100.00;101142.00;4203159;28;20033;-76
2023/08/15 04:01:43;;;;;;;2.30;0.90;;;17.10;99.90;;;16.41;100.00;101146.03;4204153;28;20028;-76
2023/08/15 04:03:44;;;;;;;3.80;1.23;;;17.00;99.90;;;16.33;100.00;101140.81;4203058;28;20431;-76
2023/08/15 04:05:48;;;;;;;2.88;1.27;;;17.00;99.90;;;16.31;100.00;101148.97;4202997;28;20040;-76
2023/08/15 04:07:49;;;;;;;5.43;1.38;;;17.00;99.90;;;16.31;100.00;101156.13;4204036;28;20016;-75
2023/08/15 04:09:50;;;;;;;8.32;1.50;;;16.90;99.90;;;16.26;100.00;101159.34;4204257;28;20025;-76
2023/08/15 04:11:51;;;;;;;6.03;1.23;;;16.90;99.90;;;16.27;100.00;101169.00;4204254;28;20029;-76
2023/08/15 04:13:52;;;;;;;4.90;1.55;;;16.90;99.90;;;16.27;100.00;101169.00;4202975;28;20032;-76
2023/08/15 04:15:53;;;;;;;3.45;1.35;;;16.90;99.90;;;16.25;100.00;101163.00;4203059;28;20059;-75
2023/08/15 04:17:54;;;;;;;7.47;1.77;;;16.80;99.90;;;16.25;100.00;101160.34;4202901;28;20028;-76
2023/08/15 04:19:55;;;;;;;6.22;1.67;;;16.90;99.90;;;16.26;100.00;101162.00;4202687;28;20393;-75
2023/08/15 04:21:56;;;;;;;2.30;1.38;;;16.90;99.90;;;16.29;100.00;101172.28;4186122;28;20029;-76
2023/08/15 04:23:56;;;;;;;3.13;1.20;;;16.90;99.90;;;16.30;100.00;101176.59;4202748;28;20024;-76
2023/08/15 04:25:57;;;;;;;3.25;1.25;;;16.90;99.90;;;16.27;100.00;101176.16;4203956;28;20028;-76
2023/08/15 04:27:58;;;;;;;2.10;1.63;;;16.90;99.90;;;16.24;100.00;101179.16;4202788;28;20021;-76
2023/08/15 04:29:59;;;;;;;4.00;1.42;;;16.90;99.90;;;16.17;100.00;101186.22;4203872;28;20036;-76
2023/08/15 04:32:00;;;;;;;2.60;1.42;;;16.80;99.90;;;16.17;100.00;101192.38;4202184;28;20033;-76
2023/08/15 04:34:01;;;;;;;1.90;1.55;;;16.80;99.90;;;16.13;100.00;101184.94;4202743;28;20032;-76
2023/08/15 04:36:02;;;;;;;6.70;2.33;;;16.70;99.90;;;16.05;100.00;101183.19;4203559;28;20055;-76
2023/08/15 04:38:03;;;;;;;5.30;1.60;;;16.70;99.90;;;16.07;100.00;101185.66;4202386;28;20082;-76
2023/08/15 04:40:05;;;;;;;5.30;1.25;;;16.70;99.90;;;16.02;100.00;101195.00;4203513;28;20033;-76
2023/08/15 04:42:06;;;;;;;3.85;1.08;;;16.70;99.90;;;15.85;100.00;101172.22;4202291;28;20423;-76
2023/08/15 04:44:07;;;;;;;3.70;1.80;;;16.60;99.90;;;16.01;100.00;101195.19;4186241;28;20075;-76
2023/08/15 04:46:07;;;;;;;6.70;1.55;;;16.60;99.90;;;15.93;100.00;101209.38;4197590;28;20029;-76
2023/08/15 04:48:10;;;;;;;5.65;1.92;;;16.60;99.90;;;15.84;100.00;101204.31;4203491;28;20032;-75
2023/08/15 04:50:11;;;;;;;6.13;2.45;;;16.60;99.90;;;15.89;100.00;101218.72;4203629;28;20038;-76
2023/08/15 04:52:16;;;;;;;6.65;1.70;;;16.50;99.90;;;15.81;100.00;101213.47;4198369;28;20408;-76
2023/08/15 04:54:17;;;;;;;5.25;1.60;;;16.50;99.90;;;15.76;100.00;101218.53;4202599;28;20032;-75
2023/08/15 04:56:17;;;;;;;4.70;1.65;;;16.40;99.90;;;15.75;100.00;101216.03;4202111;28;20032;-76
2023/08/15 04:58:18;;;;;;;4.95;1.50;;;16.40;99.90;;;15.69;100.00;101216.72;4202291;28;20033;-75
2023/08/15 05:00:20;;;;;;;2.72;1.60;;;16.40;99.90;;;15.69;100.00;101225.53;4202269;28;20029;-76
2023/08/15 05:02:20;;;;;;;4.40;1.60;;;16.30;99.90;;;15.66;100.00;101217.09;4202284;28;20024;-76
2023/08/15 05:04:21;;;;;;;3.55;1.55;;;16.30;99.90;;;15.58;100.00;101212.66;4202143;28;20025;-76
2023/08/15 05:06:22;;;;;;;2.88;1.52;;;16.30;99.90;;;15.58;100.00;101222.47;4201889;28;20036;-75
2023/08/15 05:08:23;;;;;;;4.55;1.52;;;16.30;99.90;;;15.58;100.00;101223.31;4201345;28;20039;-76
2023/08/15 05:10:24;;;;;;;5.80;1.50;;;16.20;99.90;;;15.59;100.00;101224.13;4204496;28;20470;-76
2023/08/15 05:12:25;;;;;;;6.80;1.63;;;16.20;99.90;;;15.56;100.00;101213.84;4203059;28;20028;-76
2023/08/15 05:14:26;;;;;;;3.60;1.23;;;16.20;99.90;;;15.61;100.00;101230.09;4203235;28;20036;-75
2023/08/15 05:16:26;;;;;;;4.30;2.00;;;16.20;99.90;;;15.57;100.00;101226.13;4202016;28;20048;-76
2023/08/15 05:18:27;;;;;;;3.40;1.70;;;16.20;99.90;;;15.57;100.00;101226.94;4201910;28;20416;-76
2023/08/15 05:20:28;;;;;;;6.25;1.67;;;16.20;99.90;;;15.56;100.00;101235.94;4201954;28;20024;-75
2023/08/15 05:22:30;;;;;;;3.13;1.15;;;16.20;99.90;;;15.58;100.00;101239.25;4201539;28;20431;-75
2023/08/15 05:24:31;;;;;;;4.20;1.80;;;16.20;99.90;;;15.64;100.00;101237.72;4203054;28;20081;-75
2023/08/15 05:26:31;;;;;;;4.18;2.00;;;16.20;99.90;;;15.62;100.00;101240.53;4201935;28;20025;-76
2023/08/15 05:28:32;;;;;;;5.47;1.33;;;16.20;99.90;;;15.59;100.00;101238.22;4201614;28;20027;-76
2023/08/15 05:30:33;;;;;;;3.38;1.25;;;16.30;99.90;;;15.57;100.00;101244.72;4201430;28;20036;-75
2023/08/15 05:32:34;;;;;;;5.45;1.40;;;16.20;99.90;;;15.63;100.00;101246.69;4202045;28;20028;-75
2023/08/15 05:34:35;;;;;;;4.15;1.50;;;16.20;99.90;;;15.63;100.00;101247.53;4201167;28;20033;-75
2023/08/15 05:36:36;;;;;;;5.82;1.63;;;16.30;99.90;;;15.67;100.00;101259.47;4201038;28;20045;-76
2023/08/15 05:38:37;;;;;;;4.80;1.48;;;16.30;99.90;;;15.67;100.00;101250.66;4185054;28;20526;-75
2023/08/15 05:40:39;;;;;;;3.47;1.20;;;16.30;99.90;;;15.72;100.00;101250.94;4193273;28;20372;-76
2023/08/15 05:42:40;;;;;;;5.65;1.27;;;16.30;99.90;;;15.74;100.00;101259.59;4184753;28;20048;-75
2023/08/15 05:44:40;;;;;;;3.38;1.35;;;16.30;99.90;;;15.77;100.00;101264.56;4202642;28;20028;-76
2023/08/15 05:46:41;;;;;;;6.13;1.55;;;16.40;99.90;;;15.77;100.00;101261.91;4201508;28;20024;-76
2023/08/15 05:48:42;;;;;;;6.07;1.58;;;16.40;99.90;;;15.79;100.00;101265.22;4201796;28;20391;-76
2023/08/15 05:50:43;;;;;;;3.97;1.48;;;16.40;99.90;;;15.89;100.00;101268.44;4207010;28;20032;-75
2023/08/15 05:52:44;;;;;;;5.47;1.80;;;16.40;99.90;;;15.83;100.00;101264.66;4201308;28;20031;-75
2023/08/15 05:54:45;;;;;;;4.20;1.45;;;16.50;99.90;;;15.88;100.00;101266.81;4201392;28;20025;-75
2023/08/15 05:56:46;;;;;;;3.53;1.70;;;16.50;99.90;;;15.93;100.00;101270.59;4201479;28;20036;-76
2023/08/15 05:58:47;;;;;;;4.25;1.33;;;16.50;99.90;;;15.97;100.00;101273.72;4201211;28;20032;-75
2023/08/15 06:00:48;;;;;;;4.13;1.83;;;16.50;99.90;;;15.99;100.00;101269.88;4184573;28;20567;-75
2023/08/15 06:02:49;;;;;;;5.43;2.00;;;16.60;99.90;;;16.01;100.00;101267.03;4196950;28;20017;-76
2023/08/15 06:04:49;;;;;;;3.88;1.40;;;16.60;99.90;;;16.07;100.00;101268.97;4191163;28;20516;-75
2023/08/15 06:06:50;;;;;;;5.60;1.58;;;16.70;99.90;;;16.11;100.00;101278.25;4202175;28;20027;-76
2023/08/15 06:08:51;;;;;;;4.03;2.05;;;16.70;99.90;;;16.08;100.00;101267.97;4199252;28;20073;-77
2023/08/15 06:10:52;;;;;;;7.63;1.50;;;16.70;99.90;;;16.18;100.00;101286.38;4200590;28;20028;-77
2023/08/15 06:12:53;;;;;;;3.55;1.50;;;16.70;99.90;;;16.14;100.00;101285.06;4183297;28;20032;-76
2023/08/15 06:14:54;;;;;;;6.80;1.60;;;16.70;99.90;;;16.16;100.00;101275.88;4193354;28;20025;-76
2023/08/15 06:16:54;;;;;;;3.75;2.03;;;16.80;99.90;;;16.23;100.00;101292.81;4200147;28;20027;-76
2023/08/15 06:18:56;;;;;;;6.93;1.60;;;16.80;99.90;;;16.16;100.00;101275.88;4199973;28;20012;-76
2023/08/15 06:20:57;;;;;;;6.22;2.15;;;16.80;99.90;;;16.13;100.00;101272.78;4201944;28;20028;-76
2023/08/15 06:22:57;;;;;;;2.42;1.30;;;16.80;99.90;;;16.27;100.00;101287.97;4192400;28;20035;-76
2023/08/15 06:24:58;;;;;;;4.05;1.35;;;16.80;99.90;;;16.29;100.00;101291.25;4200503;28;20029;-76
2023/08/15 06:26:59;;;;;;;6.75;1.70;;;16.80;99.90;;;16.30;100.00;101288.44;4201309;28;20050;-76
2023/08/15 06:29:00;;;;;;;3.55;1.38;;;16.80;99.90;;;16.33;100.00;101288.06;4200457;28;20027;-76
2023/08/15 06:31:01;;;;;;;4.32;1.25;;;16.90;99.90;;;16.30;100.00;101283.09;4200839;28;20028;-76
2023/08/15 06:33:02;;;;;;;5.30;1.30;;;17.00;99.90;;;16.37;100.00;101285.84;4201777;28;20512;-76
2023/08/15 06:35:05;;;;;;;3.33;1.45;;;17.00;99.90;;;16.39;100.00;101287.34;4183992;28;20085;-76
2023/08/15 06:37:06;;;;;;;4.95;1.45;;;17.00;99.90;;;16.41;100.00;101301.31;4188493;28;20055;-76
2023/08/15 06:39:07;;;;;;;4.30;1.15;;;17.00;99.90;;;16.36;100.00;101292.19;4201949;28;20021;-76
2023/08/15 06:41:07;;;;;;;3.55;1.23;;;17.00;99.90;;;16.53;100.00;101297.19;4200670;28;20033;-76
2023/08/15 06:43:08;;;;;;;2.80;1.48;;;17.10;99.90;;;16.63;100.00;101296.13;4200841;28;20499;-76
2023/08/15 06:45:16;;;;;;;3.08;1.20;;;17.20;99.90;;;16.66;100.00;101299.28;4201971;28;20024;-75
2023/08/15 06:47:16;;;;;;;3.78;1.30;;;17.20;99.90;;;16.84;100.00;101305.09;4200739;28;20017;-76
2023/08/15 06:49:17;;;;;;;3.42;1.15;;;17.30;99.90;;;16.97;100.00;101301.75;4201850;28;20031;-76
2023/08/15 06:51:18;;;;;;;5.95;1.10;;;17.40;99.90;;;16.99;100.00;101305.88;4200550;28;20059;-76
2023/08/15 06:53:19;;;;;;;8.05;1.70;;;17.50;99.90;;;17.00;100.00;101306.72;4201712;28;20024;-76
2023/08/15 06:55:20;;;;;;;4.20;1.38;;;17.50;99.90;;;16.91;100.00;101308.66;4202028;28;20020;-76
2023/08/15 06:57:21;;;;;;;3.25;1.05;;;17.50;99.90;;;16.94;100.00;101297.63;4200597;28;20029;-76
2023/08/15 06:59:23;;;;;;;7.32;1.63;;;17.60;99.90;;;17.01;100.00;101311.03;4200248;28;20025;-76
2023/08/15 07:01:24;;;;;;;5.25;1.25;;;17.60;99.90;;;17.05;100.00;101315.81;4213967;28;20111;-76
2023/08/15 07:03:25;;;;;;;4.13;1.25;;;17.60;99.90;;;17.03;100.00;101309.84;4201770;28;20028;-76
2023/08/15 07:05:26;;;;;;;3.03;1.10;;;17.60;99.90;;;16.98;100.00;101308.75;4200601;28;20035;-76
2023/08/15 07:07:27;;;;;;;3.80;1.35;;;17.60;99.90;;;16.90;100.00;101320.34;4200351;28;20388;-76
2023/08/15 07:09:29;;;;;;;4.32;1.38;;;17.60;99.90;;;16.91;100.00;101313.97;4217307;28;20035;-76
2023/08/15 07:11:29;;;;;;;3.30;1.23;;;17.50;99.90;;;16.93;100.00;101317.31;4201711;28;20024;-76
2023/08/15 07:13:30;;;;;;;5.63;1.20;;;17.50;99.90;;;16.91;100.00;101313.97;4200353;28;20025;-76
2023/08/15 07:15:32;;;;;;;4.97;1.10;;;17.50;99.90;;;17.05;100.00;101318.47;4196973;28;20024;-76
2023/08/15 07:17:33;;;;;;;5.00;1.10;;;17.50;99.90;;;17.06;100.00;101311.31;4201925;28;20084;-76
2023/08/15 07:19:33;;;;;;;4.20;1.17;;;17.60;99.90;;;17.19;100.00;101330.16;4200355;28;20032;-76
2023/08/15 07:21:34;;;;;;;6.50;1.63;;;17.70;99.90;;;17.12;100.00;101319.41;4197526;28;20032;-76
2023/08/15 07:23:35;;;;;;;2.40;0.95;;;17.70;99.90;;;17.10;100.00;101328.59;4179955;28;20022;-76
2023/08/15 07:25:41;;;;;;;2.53;1.10;;;17.70;99.90;;;17.10;100.00;101323.28;4201541;28;20055;-76
2023/08/15 07:27:42;;;;;;;5.78;2.00;;;17.70;99.90;;;16.78;100.00;101304.97;4200494;28;20096;-76
2023/08/15 07:29:44;;;;;;;4.47;1.00;;;17.70;99.90;;;16.90;100.00;101330.16;4200315;28;20032;-76
2023/08/15 07:31:45;;;;;;;4.65;1.33;;;17.60;99.90;;;17.03;100.00;101331.16;4183784;28;20025;-76
2023/08/15 07:33:46;;;;;;;3.45;1.13;;;17.60;99.90;;;17.02;100.00;101331.38;4187110;28;20039;-76
2023/08/15 07:35:47;;;;;;;2.33;1.35;;;17.70;99.90;;;17.15;100.00;101334.19;4183371;28;20045;-76
2023/08/15 07:37:48;;;;;;;4.60;1.42;;;17.70;99.90;;;17.25;100.00;101337.44;4191974;28;20097;-74
2023/08/15 07:39:58;;;;;;;5.13;1.60;;;17.80;99.90;;;17.46;100.00;101337.50;4181453;28;20032;-73
2023/08/15 07:41:58;;;;;;;3.50;1.50;;;18.00;99.90;;;17.53;100.00;101335.72;4173222;28;20025;-74
2023/08/15 07:44:00;;;;;;;2.20;1.20;;;18.10;99.90;;;17.59;100.00;101340.34;4200634;28;20028;-75
2023/08/15 07:46:01;;;;;;;3.20;1.17;;;18.20;99.90;;;17.69;100.00;101346.22;4199495;28;20066;-74
2023/08/15 07:48:01;;;;;;;4.95;1.50;;;18.20;99.90;;;17.68;100.00;101339.22;4200264;28;20021;-73
2023/08/15 07:50:17;;;;;;;4.35;1.50;;;18.20;99.90;;;17.66;100.00;101345.75;4199963;28;20032;-73
2023/08/15 07:52:18;;;;;;;4.53;1.38;;;18.30;99.90;;;17.67;100.00;101350.09;4199435;28;20102;-75
2023/08/15 07:54:19;;;;;;;7.32;1.60;;;18.30;99.90;;;17.66;100.00;101341.25;4200462;28;20502;-75
2023/08/15 07:56:20;;;;;;;3.33;1.80;;;18.30;99.90;;;17.67;100.00;101336.75;4203229;28;20549;-75
2023/08/15 07:58:20;;;;;;;2.40;1.08;;;18.30;99.90;;;17.84;100.00;101359.53;4203767;28;20032;-74
2023/08/15 08:00:22;;;;;;;4.35;1.17;;;18.40;99.90;;;17.80;100.00;101349.44;4203649;28;20028;-74
2023/08/15 08:02:24;;;;;;;4.03;1.60;;;18.40;99.90;;;17.65;100.00;101355.59;4175572;28;20087;-73
2023/08/15 08:04:25;;;;;;;4.13;1.73;;;18.40;99.90;;;17.52;100.00;101354.59;4202151;28;20028;-74
2023/08/15 08:06:26;;;;;;;5.75;1.30;;;18.30;99.90;;;17.64;100.00;101348.63;4202223;28;20028;-75
2023/08/15 08:08:28;;;;;;;4.30;1.85;;;18.20;99.90;;;17.84;100.00;101356.03;4203325;28;20059;-72
2023/08/15 08:10:29;;;;;;;3.47;1.20;;;18.30;99.90;;;17.78;100.00;101354.09;4202121;28;20025;-74
2023/08/15 08:12:30;;;;;;;4.25;1.95;;;18.40;99.90;;;17.74;100.00;101359.00;4201098;28;20043;-75
2023/08/15 08:14:31;;;;;;;4.93;1.55;;;18.40;99.90;;;17.80;100.00;101358.25;4200249;28;20032;-75
2023/08/15 08:16:32;;;;;;;7.15;1.58;;;18.40;99.90;;;17.89;100.00;101361.66;4201982;28;20025;-75
2023/08/15 08:18:33;;;;;;;4.78;1.73;;;18.50;99.90;;;17.96;100.00;101354.50;4203276;28;20048;-76
2023/08/15 08:20:34;;;;;;;5.50;1.65;;;18.50;99.90;;;18.04;100.00;101355.22;4202313;28;20029;-76